createdAt,value
2022-07-27T00:00:55.553Z,16.57
2022-07-27T00:03:47.604Z,16.56
2022-07-27T00:06:23.568Z,16.52
2022-07-27T00:09:08.730Z,16.53
2022-07-27T00:11:56.490Z,16.53
2022-07-27T00:15:10.457Z,16.58
2022-07-27T00:18:07.076Z,16.61
2022-07-27T00:21:16.682Z,16.62
2022-07-27T00:24:10.602Z,16.65
2022-07-27T00:26:57.268Z,16.67
2022-07-27T00:29:35.279Z,16.66
2022-07-27T00:32:13.452Z,16.70
2022-07-27T00:35:02.445Z,16.69
2022-07-27T00:38:01.365Z,16.72
2022-07-27T00:40:59.538Z,16.75
2022-07-27T00:43:51.368Z,16.79
2022-07-27T00:46:24.983Z,16.79
2022-07-27T00:49:15.645Z,16.79
2022-07-27T00:52:25.507Z,16.80
2022-07-27T00:55:07.197Z,16.81
2022-07-27T00:57:53.153Z,16.79
2022-07-27T01:00:50.184Z,16.77
2022-07-27T01:03:29.686Z,16.77
2022-07-27T01:06:27.092Z,16.77
2022-07-27T01:09:23.661Z,16.74
2022-07-27T01:12:16.696Z,16.72
2022-07-27T01:14:55.917Z,16.72
2022-07-27T01:18:27.663Z,16.72
2022-07-27T01:21:15.353Z,16.72
2022-07-27T01:24:21.394Z,16.73
2022-07-27T01:27:23.860Z,16.75
2022-07-27T01:33:37.147Z,16.70
2022-07-27T01:36:31.529Z,16.69
2022-07-27T01:39:17.621Z,16.70
2022-07-27T01:42:20.130Z,16.68
2022-07-27T01:45:21.921Z,16.64
2022-07-27T01:48:05.071Z,16.62
2022-07-27T01:50:47.904Z,16.62
2022-07-27T01:53:34.690Z,16.62
2022-07-27T01:56:21.213Z,16.61
2022-07-27T01:59:16.080Z,16.58
2022-07-27T02:02:22.621Z,16.57
2022-07-27T02:05:13.903Z,16.55
2022-07-27T02:07:59.998Z,16.52
2022-07-27T02:10:58.162Z,16.55
2022-07-27T02:13:56.499Z,16.55
2022-07-27T02:16:42.503Z,16.54
2022-07-27T02:19:50.969Z,16.49
2022-07-27T02:22:47.940Z,16.42
2022-07-27T02:25:40.539Z,16.34
2022-07-27T02:28:24.500Z,16.26
2022-07-27T02:31:19.229Z,16.22
2022-07-27T02:34:17.668Z,16.19
2022-07-27T02:37:25.975Z,16.14
2022-07-27T02:40:12.942Z,16.11
2022-07-27T02:43:03.062Z,16.11
2022-07-27T02:46:03.425Z,16.10
2022-07-27T02:48:55.805Z,16.07
2022-07-27T02:51:51.691Z,16.04
2022-07-27T02:54:45.444Z,16.06
2022-07-27T02:57:35.990Z,16.08
2022-07-27T03:00:26.554Z,16.11
2022-07-27T03:03:17.139Z,16.12
2022-07-27T03:06:23.003Z,16.13
2022-07-27T03:09:11.694Z,16.15
2022-07-27T03:11:42.570Z,16.15
2022-07-27T03:14:23.330Z,16.18
2022-07-27T03:17:13.055Z,16.19
2022-07-27T03:20:17.316Z,16.16
2022-07-27T03:22:54.336Z,16.15
2022-07-27T03:25:58.161Z,16.13
2022-07-27T03:28:40.856Z,16.11
2022-07-27T03:31:31.615Z,16.04
2022-07-27T03:34:41.025Z,15.97
2022-07-27T03:37:19.917Z,15.95
2022-07-27T03:40:33.573Z,15.92
2022-07-27T03:43:16.886Z,15.91
2022-07-27T03:45:56.612Z,15.88
2022-07-27T03:48:36.741Z,15.87
2022-07-27T03:51:21.773Z,15.86
2022-07-27T03:54:17.071Z,15.83
2022-07-27T03:57:02.403Z,15.84
2022-07-27T03:59:50.945Z,15.85
2022-07-27T04:02:44.789Z,15.85
2022-07-27T04:05:17.918Z,15.82
2022-07-27T04:08:12.552Z,15.83
2022-07-27T04:11:02.568Z,15.82
2022-07-27T04:13:48.772Z,15.81
2022-07-27T04:16:35.618Z,15.82
2022-07-27T04:19:49.461Z,15.79
2022-07-27T04:22:30.869Z,15.74
2022-07-27T04:25:21.053Z,15.73
2022-07-27T04:27:57.430Z,15.72
2022-07-27T04:34:37.499Z,15.74
2022-07-27T04:37:35.078Z,15.79
2022-07-27T04:40:26.802Z,15.81
2022-07-27T04:43:08.420Z,15.85
2022-07-27T04:45:44.433Z,15.89
2022-07-27T04:48:23.749Z,15.92
2022-07-27T04:51:17.461Z,15.92
2022-07-27T04:54:42.694Z,15.89
2022-07-27T04:57:42.679Z,15.88
2022-07-27T05:00:36.971Z,15.85
2022-07-27T05:03:35.710Z,15.82
2022-07-27T05:06:24.404Z,15.83
2022-07-27T05:09:36.610Z,15.88
2022-07-27T05:12:38.595Z,15.91
2022-07-27T05:15:13.304Z,15.93
2022-07-27T05:17:57.670Z,15.99
2022-07-27T05:21:24.209Z,16.06
2022-07-27T05:24:12.538Z,16.14
2022-07-27T05:27:19.930Z,16.19
2022-07-27T05:30:14.653Z,16.26
2022-07-27T05:33:04.230Z,16.31
2022-07-27T05:35:38.044Z,16.34
2022-07-27T05:38:32.727Z,16.35
2022-07-27T05:41:34.489Z,16.44
2022-07-27T05:44:42.986Z,16.50
2022-07-27T05:47:53.278Z,16.55
2022-07-27T05:51:00.426Z,16.58
2022-07-27T05:54:16.114Z,16.60
2022-07-27T05:57:57.613Z,16.68
2022-07-27T06:00:39.272Z,16.69
2022-07-27T06:03:59.839Z,16.74
2022-07-27T06:07:15.027Z,16.80
2022-07-27T06:09:52.593Z,16.91
2022-07-27T06:12:40.451Z,17.02
2022-07-27T06:15:23.175Z,17.11
2022-07-27T06:17:55.095Z,17.21
2022-07-27T06:20:38.144Z,17.27
2022-07-27T06:23:32.613Z,17.35
2022-07-27T06:26:09.439Z,17.43
2022-07-27T06:28:58.643Z,17.48
2022-07-27T06:31:47.452Z,17.48
2022-07-27T06:34:38.389Z,17.53
2022-07-27T06:37:41.158Z,17.58
2022-07-27T06:40:32.474Z,17.67
2022-07-27T06:43:10.757Z,17.75
2022-07-27T06:45:47.996Z,17.82
2022-07-27T06:48:33.631Z,17.89
2022-07-27T06:51:30.782Z,17.91
2022-07-27T06:54:05.104Z,17.91
2022-07-27T06:57:09.371Z,17.92
2022-07-27T06:59:53.669Z,18.01
2022-07-27T07:02:35.248Z,18.14
2022-07-27T07:05:25.518Z,18.23
2022-07-27T07:08:18.534Z,18.27
2022-07-27T07:10:57.300Z,18.25
2022-07-27T07:13:38.452Z,18.27
2022-07-27T07:16:09.406Z,18.32
2022-07-27T07:18:52.033Z,18.39
2022-07-27T07:21:54.159Z,18.44
2022-07-27T07:24:26.316Z,18.54
2022-07-27T07:27:13.032Z,18.57
2022-07-27T07:29:46.592Z,18.65
2022-07-27T07:32:28.901Z,18.73
2022-07-27T07:35:18.100Z,18.79
2022-07-27T07:38:08.434Z,18.85
2022-07-27T07:41:00.636Z,18.95
2022-07-27T07:43:36.741Z,19.00
2022-07-27T07:46:14.700Z,19.05
2022-07-27T07:48:58.769Z,19.09
2022-07-27T07:51:33.028Z,19.15
2022-07-27T07:54:03.600Z,19.23
2022-07-27T07:56:50.983Z,19.31
2022-07-27T07:59:24.123Z,19.40
2022-07-27T08:02:09.814Z,19.40
2022-07-27T08:04:39.475Z,19.42
2022-07-27T08:07:25.736Z,19.48
2022-07-27T08:10:03.764Z,19.61
2022-07-27T08:12:44.133Z,19.68
2022-07-27T08:15:34.929Z,19.69
2022-07-27T08:18:09.795Z,19.74
2022-07-27T08:20:59.725Z,19.84
2022-07-27T08:23:43.933Z,19.87
2022-07-27T08:26:14.868Z,19.79
2022-07-27T08:28:59.290Z,19.81
2022-07-27T08:31:52.081Z,19.86
2022-07-27T08:34:26.736Z,19.85
2022-07-27T08:37:04.204Z,19.93
2022-07-27T08:42:51.139Z,20.22
2022-07-27T08:45:30.765Z,20.25
2022-07-27T08:48:15.643Z,20.27
2022-07-27T08:51:00.244Z,20.27
2022-07-27T08:53:53.554Z,20.35
2022-07-27T08:56:43.945Z,20.43
2022-07-27T08:59:16.957Z,20.46
2022-07-27T09:02:16.637Z,20.46
2022-07-27T09:05:09.618Z,20.55
2022-07-27T09:08:15.404Z,20.65
2022-07-27T09:10:56.425Z,20.67
2022-07-27T09:20:25.903Z,21.28
2022-07-27T09:23:15.666Z,21.53
2022-07-27T09:26:20.478Z,21.88
2022-07-27T09:29:17.569Z,21.78
2022-07-27T09:31:52.635Z,21.95
2022-07-27T09:34:33.183Z,22.27
2022-07-27T09:37:20.980Z,22.37
2022-07-27T09:39:50.986Z,22.45
2022-07-27T09:43:05.602Z,22.55
2022-07-27T09:45:35.485Z,22.63
2022-07-27T09:48:20.503Z,22.79
2022-07-27T09:51:37.453Z,22.69
2022-07-27T09:54:09.593Z,22.55
2022-07-27T09:56:37.608Z,22.72
2022-07-27T09:59:28.075Z,22.76
2022-07-27T10:01:58.707Z,22.72
2022-07-27T10:04:36.147Z,22.92
2022-07-27T10:07:14.932Z,23.19
2022-07-27T10:09:46.910Z,23.46
2022-07-27T10:12:16.809Z,23.52
2022-07-27T10:14:56.655Z,23.68
2022-07-27T10:17:29.744Z,23.51
2022-07-27T10:20:08.386Z,23.15
2022-07-27T10:22:55.436Z,22.81
2022-07-27T10:25:37.226Z,22.58
2022-07-27T10:28:17.371Z,22.40
2022-07-27T10:31:18.374Z,22.32
2022-07-27T10:33:52.178Z,22.35
2022-07-27T10:36:30.292Z,22.45
2022-07-27T10:39:10.801Z,22.81
2022-07-27T10:41:47.732Z,22.92
2022-07-27T10:44:18.697Z,22.90
2022-07-27T10:47:02.594Z,22.91
2022-07-27T10:49:40.605Z,22.86
2022-07-27T10:52:46.574Z,22.63
2022-07-27T10:56:18.277Z,22.45
2022-07-27T10:58:57.761Z,22.45
2022-07-27T11:01:41.684Z,22.68
2022-07-27T11:04:15.258Z,23.03
2022-07-27T11:10:07.750Z,22.89
2022-07-27T11:13:09.995Z,22.70
2022-07-27T11:16:23.485Z,22.54
2022-07-27T11:19:34.723Z,22.74
2022-07-27T11:25:42.880Z,22.75
2022-07-27T11:28:30.350Z,22.79
2022-07-27T11:31:52.674Z,22.75
2022-07-27T11:34:38.242Z,22.58
2022-07-27T11:37:30.990Z,22.49
2022-07-27T11:40:56.401Z,22.37
2022-07-27T11:43:46.038Z,22.30
2022-07-27T11:46:35.435Z,22.49
2022-07-27T11:49:35.346Z,22.58
2022-07-27T11:52:29.867Z,22.90
2022-07-27T11:55:13.659Z,23.44
2022-07-27T11:58:01.592Z,23.57
2022-07-27T12:00:42.140Z,23.39
2022-07-27T12:03:45.744Z,23.17
2022-07-27T12:06:34.271Z,22.95
2022-07-27T12:09:13.984Z,22.71
2022-07-27T12:11:55.319Z,22.48
2022-07-27T12:14:46.429Z,22.34
2022-07-27T12:17:43.155Z,22.34
2022-07-27T12:20:23.384Z,22.44
2022-07-27T12:23:12.958Z,22.76
2022-07-27T12:26:30.129Z,22.99
2022-07-27T12:29:12.444Z,23.02
2022-07-27T12:32:03.320Z,22.99
2022-07-27T12:34:54.523Z,22.88
2022-07-27T12:37:33.131Z,22.86
2022-07-27T12:40:20.411Z,22.90
2022-07-27T12:43:00.171Z,23.07
2022-07-27T12:45:47.421Z,23.31
2022-07-27T12:48:31.523Z,23.25
2022-07-27T12:51:10.838Z,23.05
2022-07-27T12:54:14.252Z,22.96
2022-07-27T12:56:44.991Z,22.86
2022-07-27T12:59:24.116Z,22.77
2022-07-27T13:01:57.394Z,22.82
2022-07-27T13:04:55.835Z,22.92
2022-07-27T13:07:43.164Z,22.94
2022-07-27T13:10:38.864Z,22.76
2022-07-27T13:13:09.358Z,22.83
2022-07-27T13:15:40.109Z,23.17
2022-07-27T13:18:15.959Z,23.31
2022-07-27T13:20:48.174Z,23.21
2022-07-27T13:23:33.129Z,23.02
2022-07-27T13:26:06.322Z,23.07
2022-07-27T13:28:48.100Z,23.34
2022-07-27T13:31:26.139Z,24.00
2022-07-27T13:33:57.027Z,24.80
2022-07-27T13:36:47.446Z,25.16
2022-07-27T13:39:39.271Z,25.40
2022-07-27T13:42:17.858Z,25.61
2022-07-27T13:45:08.669Z,25.61
2022-07-27T13:48:04.166Z,25.92
2022-07-27T13:50:49.216Z,25.95
2022-07-27T13:53:37.220Z,25.60
2022-07-27T13:56:23.780Z,25.34
2022-07-27T13:59:17.183Z,25.16
2022-07-27T14:01:45.819Z,24.94
2022-07-27T14:04:29.890Z,25.15
2022-07-27T14:07:07.369Z,25.13
2022-07-27T14:10:01.083Z,24.74
2022-07-27T14:12:58.368Z,24.27
2022-07-27T14:15:53.909Z,23.88
2022-07-27T14:18:37.454Z,24.19
2022-07-27T14:21:15.864Z,24.36
2022-07-27T14:23:49.892Z,24.40
2022-07-27T14:26:27.139Z,24.62
2022-07-27T14:29:05.479Z,24.98
2022-07-27T14:31:55.733Z,24.94
2022-07-27T14:34:36.897Z,24.64
2022-07-27T14:37:09.041Z,24.50
2022-07-27T14:39:47.989Z,24.44
2022-07-27T14:42:24.436Z,24.51
2022-07-27T14:45:03.589Z,24.69
2022-07-27T14:47:41.340Z,24.70
2022-07-27T14:50:12.204Z,24.28
2022-07-27T14:52:55.110Z,24.12
2022-07-27T14:55:33.572Z,23.81
2022-07-27T14:58:20.237Z,23.46
2022-07-27T15:01:03.155Z,23.35
2022-07-27T15:03:52.305Z,23.29
2022-07-27T15:06:45.663Z,23.16
2022-07-27T15:09:30.055Z,23.02
2022-07-27T15:12:16.376Z,23.01
2022-07-27T15:15:05.843Z,22.95
2022-07-27T15:21:13.062Z,22.77
2022-07-27T15:23:43.283Z,22.72
2022-07-27T15:26:20.526Z,22.64
2022-07-27T15:28:53.097Z,22.52
2022-07-27T15:31:21.716Z,22.47
2022-07-27T15:34:15.454Z,22.44
2022-07-27T15:37:10.090Z,22.40
2022-07-27T15:39:46.442Z,22.30
2022-07-27T15:42:33.667Z,22.25
2022-07-27T15:45:05.045Z,22.21
2022-07-27T15:47:32.753Z,22.16
2022-07-27T15:50:32.072Z,22.13
2022-07-27T15:53:06.947Z,22.10
2022-07-27T15:55:47.467Z,22.09
2022-07-27T15:58:19.821Z,22.07
2022-07-27T16:01:12.364Z,22.01
2022-07-27T16:03:54.013Z,21.97
2022-07-27T16:06:36.780Z,22.03
2022-07-27T16:09:12.070Z,22.15
2022-07-27T16:11:42.009Z,22.20
2022-07-27T16:14:30.180Z,22.30
2022-07-27T16:17:10.686Z,22.42
2022-07-27T16:19:47.834Z,22.47
2022-07-27T16:22:31.810Z,22.46
2022-07-27T16:25:01.881Z,22.46
2022-07-27T16:27:58.067Z,22.47
2022-07-27T16:30:52.252Z,22.38
2022-07-27T16:33:58.349Z,22.24
2022-07-27T16:36:39.261Z,22.10
2022-07-27T16:39:15.070Z,22.13
2022-07-27T16:41:58.305Z,22.22
2022-07-27T16:44:42.839Z,22.33
2022-07-27T16:47:28.289Z,22.35
2022-07-27T16:50:02.829Z,22.26
2022-07-27T16:52:50.378Z,22.11
2022-07-27T16:55:38.778Z,21.95
2022-07-27T16:58:16.984Z,21.84
2022-07-27T17:01:04.406Z,21.83
2022-07-27T17:03:51.417Z,21.83
2022-07-27T17:09:22.950Z,21.75
2022-07-27T17:12:11.681Z,21.66
2022-07-27T17:15:00.277Z,21.59
2022-07-27T17:17:48.401Z,21.57
2022-07-27T17:20:35.388Z,21.56
2022-07-27T17:23:15.684Z,21.52
2022-07-27T17:25:55.135Z,21.46
2022-07-27T17:28:36.390Z,21.39
2022-07-27T17:31:22.211Z,21.31
2022-07-27T17:33:52.499Z,21.21
2022-07-27T17:36:39.344Z,21.13
2022-07-27T17:39:40.605Z,21.03
2022-07-27T17:42:23.616Z,20.93
2022-07-27T17:44:55.256Z,20.83
2022-07-27T17:47:58.755Z,20.76
2022-07-27T17:50:53.240Z,20.69
2022-07-27T17:53:33.079Z,20.63
2022-07-27T17:56:13.861Z,20.59
2022-07-27T17:58:53.807Z,20.55
2022-07-27T18:01:46.394Z,20.53
2022-07-27T18:04:16.021Z,20.50
2022-07-27T18:06:57.100Z,20.46
2022-07-27T18:09:44.245Z,20.43
2022-07-27T18:12:23.991Z,20.41
2022-07-27T18:15:10.588Z,20.40
2022-07-27T18:18:09.643Z,20.38
2022-07-27T18:21:06.627Z,20.38
2022-07-27T18:23:53.297Z,20.37
2022-07-27T18:26:30.309Z,20.34
2022-07-27T18:29:14.653Z,20.31
2022-07-27T18:31:57.899Z,20.25
2022-07-27T18:34:43.609Z,20.19
2022-07-27T18:37:30.596Z,20.13
2022-07-27T18:40:12.090Z,20.06
2022-07-27T18:42:57.468Z,19.99
2022-07-27T18:45:52.868Z,19.93
2022-07-27T18:48:34.674Z,19.86
2022-07-27T18:51:29.873Z,19.81
2022-07-27T18:54:42.221Z,19.75
2022-07-27T18:57:20.213Z,19.67
2022-07-27T19:00:08.600Z,19.61
2022-07-27T19:02:57.941Z,19.55
2022-07-27T19:05:40.917Z,19.47
2022-07-27T19:08:33.176Z,19.42
2022-07-27T19:11:04.539Z,19.37
2022-07-27T19:13:35.868Z,19.31
2022-07-27T19:16:30.017Z,19.25
2022-07-27T19:19:12.006Z,19.18
2022-07-27T19:21:54.072Z,19.11
2022-07-27T19:24:54.359Z,19.05
2022-07-27T19:27:38.326Z,18.99
2022-07-27T19:30:34.578Z,18.89
2022-07-27T19:33:30.905Z,18.81
2022-07-27T19:36:05.732Z,18.72
2022-07-27T19:38:50.881Z,18.68
2022-07-27T19:41:27.567Z,18.64
2022-07-27T19:44:16.794Z,18.60
2022-07-27T19:47:01.814Z,18.58
2022-07-27T19:49:39.690Z,18.50
2022-07-27T19:52:20.092Z,18.44
2022-07-27T19:55:01.874Z,18.39
2022-07-27T19:57:57.242Z,18.33
2022-07-27T20:00:28.771Z,18.26
2022-07-27T20:03:14.341Z,18.22
2022-07-27T20:05:48.507Z,18.17
2022-07-27T20:08:29.178Z,18.09
2022-07-27T20:11:09.253Z,18.04
2022-07-27T20:14:09.450Z,17.97
2022-07-27T20:16:51.714Z,17.89
2022-07-27T20:19:34.224Z,17.83
2022-07-27T20:22:08.700Z,17.76
2022-07-27T20:24:37.928Z,17.72
2022-07-27T20:27:29.131Z,17.70
2022-07-27T20:30:04.793Z,17.67
2022-07-27T20:32:55.402Z,17.64
2022-07-27T20:35:41.879Z,17.59
2022-07-27T20:38:31.666Z,17.57
2022-07-27T20:41:19.789Z,17.55
2022-07-27T20:43:59.785Z,17.50
2022-07-27T20:46:51.376Z,17.44
2022-07-27T20:49:31.848Z,17.37
2022-07-27T20:52:16.940Z,17.33
2022-07-27T20:55:25.120Z,17.30
2022-07-27T20:58:16.047Z,17.26
2022-07-27T21:01:10.587Z,17.21
2022-07-27T21:03:59.920Z,17.17
2022-07-27T21:06:45.772Z,17.16
2022-07-27T21:09:14.705Z,17.19
2022-07-27T21:11:52.866Z,17.18
2022-07-27T21:14:30.122Z,17.19
2022-07-27T21:17:06.070Z,17.20
2022-07-27T21:20:07.118Z,17.20
2022-07-27T21:23:05.484Z,17.18
2022-07-27T21:25:36.547Z,17.14
2022-07-27T21:28:06.552Z,17.09
2022-07-27T21:31:06.910Z,17.07
2022-07-27T21:33:54.132Z,17.01
2022-07-27T21:36:30.051Z,16.94
2022-07-27T21:39:08.565Z,16.90
2022-07-27T21:42:01.474Z,16.87
2022-07-27T21:44:49.606Z,16.83
2022-07-27T21:47:46.455Z,16.81
2022-07-27T21:50:29.329Z,16.77
2022-07-27T21:53:25.419Z,16.73
2022-07-27T21:56:20.009Z,16.69
2022-07-27T21:59:04.842Z,16.66
2022-07-27T22:02:08.311Z,16.61
2022-07-27T22:04:59.764Z,16.57
2022-07-27T22:07:35.470Z,16.54
2022-07-27T22:10:36.325Z,16.49
2022-07-27T22:13:36.501Z,16.45
2022-07-27T22:16:28.901Z,16.41
2022-07-27T22:19:05.362Z,16.37
2022-07-27T22:22:01.151Z,16.37
2022-07-27T22:24:36.862Z,16.35
2022-07-27T22:27:18.346Z,16.28
2022-07-27T22:30:02.812Z,16.22
2022-07-27T22:33:16.101Z,16.15
2022-07-27T22:36:16.666Z,16.11
2022-07-27T22:38:57.335Z,16.05
2022-07-27T22:41:47.456Z,16.02
2022-07-27T22:44:24.051Z,15.96
2022-07-27T22:47:24.129Z,15.92
2022-07-27T22:49:58.904Z,15.83
2022-07-27T22:52:47.349Z,15.74
2022-07-27T22:55:43.418Z,15.69
2022-07-27T22:58:26.639Z,15.67
2022-07-27T23:01:01.038Z,15.62
2022-07-27T23:04:02.556Z,15.57
2022-07-27T23:06:54.101Z,15.47
2022-07-27T23:09:51.475Z,15.38
2022-07-27T23:12:26.946Z,15.35
2022-07-27T23:15:36.751Z,15.32
2022-07-27T23:18:28.604Z,15.27
2022-07-27T23:21:10.276Z,15.20
2022-07-27T23:23:53.486Z,15.14
2022-07-27T23:26:37.038Z,15.12
2022-07-27T23:29:40.630Z,15.08
2022-07-27T23:32:37.901Z,15.02
2022-07-27T23:35:25.106Z,15.05
2022-07-27T23:38:01.270Z,15.07
2022-07-27T23:40:30.636Z,15.04
2022-07-27T23:43:21.720Z,14.99
2022-07-27T23:46:02.292Z,14.92
2022-07-27T23:48:41.889Z,14.85
2022-07-27T23:51:21.230Z,14.82
2022-07-27T23:54:09.483Z,14.81
2022-07-27T23:56:42.608Z,14.73
2022-07-27T23:59:13.095Z,14.66
